createdAt,value
2022-08-19T00:01:02.515Z,20.30
2022-08-19T00:06:06.054Z,20.40
2022-08-19T00:11:11.717Z,20.30
2022-08-19T00:16:26.496Z,20.10
2022-08-19T00:21:29.975Z,20.10
2022-08-19T00:26:34.669Z,20.10
2022-08-19T00:31:38.190Z,20.10
2022-08-19T00:36:41.761Z,20.10
2022-08-19T00:41:48.576Z,20.10
2022-08-19T00:46:55.370Z,20.20
2022-08-19T00:52:04.941Z,20.20
2022-08-19T00:57:14.330Z,20.20
2022-08-19T01:02:18.617Z,20.10
2022-08-19T01:07:21.927Z,20.20
2022-08-19T01:12:28.680Z,20.10
2022-08-19T01:17:32.596Z,20.20
2022-08-19T01:22:44.933Z,20.00
2022-08-19T01:27:53.623Z,20.10
2022-08-19T01:32:58.571Z,20.30
2022-08-19T01:38:08.399Z,20.50
2022-08-19T01:43:12.691Z,20.70
2022-08-19T01:48:16.695Z,20.50
2022-08-19T01:53:21.397Z,20.30
2022-08-19T01:58:31.474Z,20.30
2022-08-19T02:03:35.640Z,18.40
2022-08-19T02:08:41.779Z,20.00
2022-08-19T02:13:45.093Z,20.00
2022-08-19T02:18:49.579Z,20.10
2022-08-19T02:23:54.563Z,20.20
2022-08-19T02:28:57.905Z,20.20
2022-08-19T02:34:01.471Z,20.20
2022-08-19T02:39:06.283Z,20.20
2022-08-19T02:44:29.101Z,20.40
2022-08-19T02:49:34.731Z,20.40
2022-08-19T02:54:40.059Z,20.20
2022-08-19T02:59:43.351Z,20.30
2022-08-19T03:04:46.843Z,20.30
2022-08-19T03:09:51.546Z,20.30
2022-08-19T03:14:55.123Z,20.40
2022-08-19T03:19:58.545Z,20.30
2022-08-19T03:25:03.610Z,20.30
2022-08-19T03:30:08.166Z,20.30
2022-08-19T03:35:15.159Z,20.00
2022-08-19T03:40:20.054Z,20.10
2022-08-19T03:45:23.324Z,20.10
2022-08-19T03:50:26.492Z,20.10
2022-08-19T03:55:31.477Z,20.30
2022-08-19T04:00:34.878Z,20.30
2022-08-19T04:05:38.705Z,20.00
2022-08-19T04:10:43.475Z,19.90
2022-08-19T04:15:48.004Z,19.80
2022-08-19T04:20:51.350Z,19.80
2022-08-19T04:25:56.679Z,19.80
2022-08-19T04:30:59.997Z,20.00
2022-08-19T04:36:03.281Z,20.00
2022-08-19T04:41:25.616Z,20.10
2022-08-19T04:46:39.970Z,20.20
2022-08-19T04:51:46.503Z,20.00
2022-08-19T04:56:52.176Z,20.00
2022-08-19T05:01:55.518Z,20.00
2022-08-19T05:07:00.881Z,19.50
2022-08-19T05:12:06.853Z,20.40
2022-08-19T05:22:36.760Z,20.30
2022-08-19T05:27:42.043Z,20.40
2022-08-19T05:32:45.744Z,20.40
2022-08-19T05:37:49.062Z,20.40
2022-08-19T05:42:59.659Z,20.30
2022-08-19T05:48:02.945Z,20.20
2022-08-19T05:53:06.396Z,20.20
2022-08-19T05:58:11.132Z,20.50
2022-08-19T06:03:14.475Z,20.70
2022-08-19T06:08:19.496Z,20.50
2022-08-19T06:13:25.490Z,20.70
2022-08-19T06:18:29.001Z,20.80
2022-08-19T06:23:32.689Z,20.80
2022-08-19T06:28:37.315Z,20.80
2022-08-19T06:33:40.627Z,21.00
2022-08-19T06:38:44.694Z,21.10
2022-08-19T06:43:54.011Z,21.10
2022-08-19T06:48:59.440Z,21.10
2022-08-19T06:54:03.112Z,21.10
2022-08-19T06:59:14.666Z,21.30
2022-08-19T07:04:21.170Z,21.30
2022-08-19T07:09:24.758Z,23.40
2022-08-19T07:14:30.156Z,21.40
2022-08-19T07:19:34.341Z,21.30
2022-08-19T07:24:38.845Z,21.00
2022-08-19T07:29:57.287Z,20.90
2022-08-19T07:35:04.300Z,21.00
2022-08-19T07:40:09.719Z,21.00
2022-08-19T07:45:14.628Z,20.80
2022-08-19T07:50:20.400Z,20.90
2022-08-19T07:55:41.685Z,21.00
2022-08-19T08:00:49.768Z,20.90
2022-08-19T08:06:10.400Z,21.00
2022-08-19T08:11:15.390Z,21.60
2022-08-19T08:16:20.346Z,24.20
2022-08-19T08:21:23.635Z,22.20
2022-08-19T08:26:27.392Z,22.50
2022-08-19T08:31:34.589Z,22.70
2022-08-19T08:36:42.738Z,23.10
2022-08-19T08:41:53.847Z,23.50
2022-08-19T08:47:03.628Z,23.20
2022-08-19T08:52:09.676Z,23.40
2022-08-19T08:57:17.622Z,23.60
2022-08-19T09:02:22.455Z,24.00
2022-08-19T09:07:36.872Z,23.80
2022-08-19T09:12:47.296Z,23.60
2022-08-19T09:17:52.140Z,23.00
2022-08-19T09:22:55.772Z,22.70
2022-08-19T09:28:05.818Z,22.70
2022-08-19T09:33:20.667Z,22.60
2022-08-19T09:38:24.093Z,22.70
2022-08-19T09:43:33.520Z,22.70
2022-08-19T09:48:49.929Z,22.70
2022-08-19T09:53:57.882Z,22.60
2022-08-19T09:59:02.006Z,22.50
2022-08-19T10:04:19.735Z,22.50
2022-08-19T10:09:26.161Z,22.70
2022-08-19T10:14:37.451Z,22.70
2022-08-19T10:19:44.046Z,22.60
2022-08-19T10:24:59.350Z,22.70
2022-08-19T10:30:03.441Z,22.90
2022-08-19T10:35:09.471Z,23.50
2022-08-19T10:40:13.650Z,23.80
2022-08-19T10:45:17.668Z,24.10
2022-08-19T10:50:39.791Z,23.70
2022-08-19T10:56:00.652Z,22.60
2022-08-19T11:01:04.126Z,23.00
2022-08-19T11:06:10.442Z,23.10
2022-08-19T11:11:14.180Z,23.40
2022-08-19T11:16:20.437Z,23.50
2022-08-19T11:21:25.705Z,23.40
2022-08-19T11:26:30.401Z,23.40
2022-08-19T11:31:38.278Z,21.10
2022-08-19T11:36:46.289Z,23.40
2022-08-19T11:41:50.058Z,23.10
2022-08-19T11:46:53.635Z,22.80
2022-08-19T11:51:59.431Z,23.00
2022-08-19T11:57:04.673Z,23.90
2022-08-19T12:02:08.209Z,23.60
2022-08-19T12:07:13.063Z,23.60
2022-08-19T12:12:16.873Z,23.30
2022-08-19T12:17:20.293Z,22.90
2022-08-19T12:22:25.277Z,23.10
2022-08-19T12:27:34.728Z,23.30
2022-08-19T12:32:44.896Z,23.50
2022-08-19T12:37:57.477Z,23.60
2022-08-19T12:43:01.467Z,23.10
2022-08-19T12:48:32.803Z,22.70
2022-08-19T12:53:30.226Z,22.90
2022-08-19T12:58:35.636Z,22.80
2022-08-19T13:03:40.709Z,23.10
2022-08-19T13:08:46.555Z,23.00
2022-08-19T13:13:52.140Z,23.80
2022-08-19T13:18:57.221Z,24.20
2022-08-19T13:24:05.267Z,25.20
2022-08-19T13:29:25.942Z,26.30
2022-08-19T13:34:33.993Z,26.40
2022-08-19T13:39:38.802Z,25.70
2022-08-19T13:44:42.208Z,25.40
2022-08-19T13:49:45.759Z,27.00
2022-08-19T13:54:50.670Z,27.00
2022-08-19T13:59:54.111Z,26.70
2022-08-19T14:04:57.503Z,26.30
2022-08-19T14:10:02.479Z,26.10
2022-08-19T14:15:07.924Z,26.50
2022-08-19T14:20:17.770Z,26.60
2022-08-19T14:25:25.409Z,26.20
2022-08-19T14:30:30.855Z,26.20
2022-08-19T14:35:35.716Z,25.70
2022-08-19T14:40:41.621Z,25.50
2022-08-19T14:45:45.099Z,25.30
2022-08-19T14:50:48.995Z,24.90
2022-08-19T14:55:53.856Z,23.70
2022-08-19T15:00:57.273Z,23.50
2022-08-19T15:06:02.495Z,23.30
2022-08-19T15:11:11.730Z,23.10
2022-08-19T15:16:18.036Z,23.10
2022-08-19T15:21:27.297Z,22.80
2022-08-19T15:26:33.564Z,22.60
2022-08-19T15:31:38.931Z,22.40
2022-08-19T15:36:42.419Z,22.00
2022-08-19T15:41:47.946Z,22.20
2022-08-19T15:46:51.316Z,22.40
2022-08-19T15:51:57.862Z,22.30
2022-08-19T15:57:19.915Z,22.10
2022-08-19T16:02:43.817Z,18.00
2022-08-19T16:07:49.531Z,18.40
2022-08-19T16:12:54.293Z,22.40
2022-08-19T16:18:02.861Z,22.50
2022-08-19T16:23:06.247Z,22.70
2022-08-19T16:28:11.280Z,22.50
2022-08-19T16:33:22.676Z,22.40
2022-08-19T16:38:27.637Z,21.90
2022-08-19T16:43:32.820Z,21.90
2022-08-19T16:48:36.777Z,21.90
2022-08-19T16:53:41.712Z,21.50
2022-08-19T16:58:46.445Z,21.40
2022-08-19T17:03:51.594Z,21.40
2022-08-19T17:08:58.433Z,21.50
2022-08-19T17:14:04.214Z,21.40
2022-08-19T17:19:08.924Z,21.50
2022-08-19T17:24:12.411Z,21.60
2022-08-19T17:29:17.205Z,21.50
2022-08-19T17:34:20.622Z,21.50
2022-08-19T17:39:24.179Z,21.70
2022-08-19T17:44:28.921Z,21.60
2022-08-19T17:49:32.645Z,21.50
2022-08-19T17:54:36.818Z,21.50
2022-08-19T17:59:41.600Z,21.50
2022-08-19T18:04:48.649Z,21.60
2022-08-19T18:09:54.898Z,21.50
2022-08-19T18:15:02.140Z,21.40
2022-08-19T18:20:12.090Z,21.40
2022-08-19T18:25:19.312Z,21.20
2022-08-19T18:30:25.562Z,21.10
2022-08-19T18:35:31.470Z,21.00
2022-08-19T18:40:52.141Z,21.00
2022-08-19T18:46:14.139Z,20.90
2022-08-19T18:51:18.992Z,20.70
2022-08-19T18:56:28.968Z,20.30
2022-08-19T19:01:37.185Z,16.50
2022-08-19T19:06:43.070Z,20.10
2022-08-19T19:11:50.398Z,20.10
2022-08-19T19:16:55.383Z,20.40
2022-08-19T19:21:59.267Z,20.60
2022-08-19T19:27:07.145Z,20.50
2022-08-19T19:32:18.427Z,20.50
2022-08-19T19:37:22.668Z,20.50
2022-08-19T19:42:26.258Z,20.30
2022-08-19T19:47:31.517Z,20.20
2022-08-19T19:52:34.910Z,20.10
2022-08-19T19:57:40.177Z,20.20
2022-08-19T20:02:49.614Z,20.20
2022-08-19T20:08:12.746Z,20.00
2022-08-19T20:13:16.482Z,20.00
2022-08-19T20:18:21.829Z,20.00
2022-08-19T20:23:26.561Z,20.10
2022-08-19T20:28:30.242Z,20.00
2022-08-19T20:33:35.292Z,19.80
2022-08-19T20:38:39.368Z,20.00
2022-08-19T20:43:42.771Z,19.90
2022-08-19T20:48:47.610Z,19.70
2022-08-19T20:53:51.024Z,19.70
2022-08-19T20:58:59.362Z,19.80
2022-08-19T21:04:05.403Z,19.90
2022-08-19T21:09:08.757Z,19.80
2022-08-19T21:14:13.021Z,19.60
2022-08-19T21:19:22.030Z,19.50
2022-08-19T21:24:31.384Z,19.60
2022-08-19T21:29:37.510Z,19.70
2022-08-19T21:34:47.475Z,19.50
2022-08-19T21:39:52.088Z,19.60
2022-08-19T21:44:56.282Z,17.40
2022-08-19T21:50:01.096Z,19.60
2022-08-19T21:55:05.274Z,19.40
2022-08-19T22:00:15.155Z,19.20
2022-08-19T22:05:23.321Z,19.10
2022-08-19T22:10:28.851Z,20.00
2022-08-19T22:15:33.292Z,19.10
2022-08-19T22:20:38.172Z,19.00
2022-08-19T22:25:44.872Z,19.00
2022-08-19T22:30:48.912Z,18.70
2022-08-19T22:35:56.927Z,18.30
2022-08-19T22:41:00.288Z,18.20
2022-08-19T22:46:03.622Z,17.90
2022-08-19T22:51:26.246Z,17.90
2022-08-19T22:56:31.877Z,17.80
2022-08-19T23:01:36.009Z,17.80
2022-08-19T23:06:42.163Z,17.70
2022-08-19T23:11:46.420Z,17.50
2022-08-19T23:16:51.369Z,17.50
2022-08-19T23:21:57.111Z,17.60
2022-08-19T23:27:17.617Z,17.50
2022-08-19T23:32:21.882Z,17.40
2022-08-19T23:37:26.659Z,17.30
2022-08-19T23:42:30.122Z,17.30
2022-08-19T23:47:34.150Z,17.30
2022-08-19T23:52:45.746Z,17.30
2022-08-19T23:57:49.152Z,17.20
